Time;durP1;ratioP1;P1;durP2;ratioP2;P2;SDS_P1;SDS_P2;PMS_P1;PMS_P2;Temp;Humidity;BMP_temperature;BMP_pressure;BME280_temperature;BME280_humidity;BME280_pressure;Samples;Min_cycle;Max_cycle;Signal;HPM_P1;HPM_P2
2022/10/30 00:00:55;;;;;;;;;18.00;16.67;;;;;-147.17;100.00;-15917.19;5033915;28;50973;-46
2022/10/30 00:03:20;;;;;;;;;13.00;11.00;;;;;-147.17;100.00;-15917.19;5033868;28;51722;-47
2022/10/30 00:05:48;;;;;;;;;18.33;17.33;;;;;-147.17;100.00;-15917.19;5032559;28;51202;-46
2022/10/30 00:08:16;;;;;;;;;17.67;16.33;;;;;-147.17;100.00;-15917.19;5032936;28;50853;-47
2022/10/30 00:10:43;;;;;;;;;15.00;14.67;;;;;-147.17;100.00;-15917.19;5033906;28;51114;-47
2022/10/30 00:13:08;;;;;;;;;17.00;16.00;;;;;-147.17;100.00;-15917.19;5033382;28;52008;-48
2022/10/30 00:15:34;;;;;;;;;16.67;16.67;;;;;-147.17;100.00;-15917.19;5032952;28;51048;-47
2022/10/30 00:18:00;;;;;;;;;16.00;15.00;;;;;-147.17;100.00;-15917.19;5034053;28;51031;-47
2022/10/30 00:20:26;;;;;;;;;16.33;14.67;;;;;-147.17;100.00;-15917.19;5033840;28;51085;-45
2022/10/30 00:22:51;;;;;;;;;16.67;16.00;;;;;-147.17;100.00;-15917.19;5034066;28;51727;-45
2022/10/30 00:25:16;;;;;;;;;16.67;16.00;;;;;-147.17;100.00;-15917.19;5032569;28;51035;-45
2022/10/30 00:27:42;;;;;;;;;17.33;17.33;;;;;-147.17;100.00;-15917.19;5034229;28;51452;-45
2022/10/30 00:30:08;;;;;;;;;18.67;18.00;;;;;-147.17;100.00;-15917.19;5025837;28;51301;-45
2022/10/30 00:32:33;;;;;;;;;23.33;21.33;;;;;-147.17;100.00;-15917.19;5015514;28;52683;-45
2022/10/30 00:34:58;;;;;;;;;20.67;20.67;;;;;-147.17;100.00;-15917.19;5032260;28;57116;-45
2022/10/30 00:37:24;;;;;;;;;19.00;18.33;;;;;-147.17;100.00;-15917.19;5016250;28;50973;-47
2022/10/30 00:39:49;;;;;;;;;19.25;19.00;;;;;-147.17;100.00;-15917.19;5033382;28;50883;-47
2022/10/30 00:42:15;;;;;;;;;23.75;21.00;;;;;-147.17;100.00;-15917.19;5033066;28;63625;-46
2022/10/30 00:44:48;;;;;;;;;22.00;21.50;;;;;-147.17;100.00;-15917.19;5032627;28;50967;-45
2022/10/30 00:47:24;;;;;;;;;21.50;21.00;;;;;-147.17;100.00;-15917.19;5024393;28;50937;-46
2022/10/30 00:50:04;;;;;;;;;20.33;20.00;;;;;-147.17;100.00;-15917.19;5032409;28;50905;-47
2022/10/30 00:52:40;;;;;;;;;19.25;19.00;;;;;-147.17;100.00;-15917.19;5033054;28;52168;-46
2022/10/30 00:55:12;;;;;;;;;20.50;20.25;;;;;-147.17;100.00;-15917.19;5032441;28;51084;-45
2022/10/30 00:57:39;;;;;;;;;23.25;21.25;;;;;-147.17;100.00;-15917.19;5029119;28;51020;-45
2022/10/30 01:00:07;;;;;;;;;18.75;18.00;;;;;-147.17;100.00;-15917.19;5033864;28;51007;-46
2022/10/30 01:02:33;;;;;;;;;21.00;19.50;;;;;-147.17;100.00;-15917.19;5010602;28;53857;-46
2022/10/30 01:05:00;;;;;;;;;22.00;21.33;;;;;-147.17;100.00;-15917.19;5026210;28;51094;-46
2022/10/30 01:07:25;;;;;;;;;18.25;17.00;;;;;-147.17;100.00;-15917.19;5031704;28;51110;-46
2022/10/30 01:09:51;;;;;;;;;20.00;18.00;;;;;-147.17;100.00;-15917.19;5033076;28;51020;-46
2022/10/30 01:12:16;;;;;;;;;23.00;22.00;;;;;-147.17;100.00;-15917.19;5032812;28;51825;-46
2022/10/30 01:14:48;;;;;;;;;21.25;18.50;;;;;-147.17;100.00;-15917.19;5033589;28;50972;-46
2022/10/30 01:17:33;;;;;;;;;18.00;17.00;;;;;-147.17;100.00;-15917.19;5033244;28;50961;-48
2022/10/30 01:20:18;;;;;;;;;20.25;20.25;;;;;-147.17;100.00;-15917.19;5033208;28;50945;-47
2022/10/30 01:22:58;;;;;;;;;20.25;19.50;;;;;-147.17;100.00;-15917.19;5032229;28;52860;-45
2022/10/30 01:25:54;;;;;;;;;19.50;19.00;;;;;-147.17;100.00;-15917.19;5031584;28;51182;-46
2022/10/30 01:28:31;;;;;;;;;20.25;19.75;;;;;-147.17;100.00;-15917.19;5026307;28;51123;-45
2022/10/30 01:30:59;;;;;;;;;19.00;17.75;;;;;-147.17;100.00;-15917.19;5033126;28;51012;-46
2022/10/30 01:33:41;;;;;;;;;22.00;20.50;;;;;-147.17;100.00;-15917.19;5032575;28;51071;-46
2022/10/30 01:36:25;;;;;;;;;18.75;18.50;;;;;-147.17;100.00;-15917.19;5030701;28;51109;-46
2022/10/30 01:38:58;;;;;;;;;21.00;19.50;;;;;-147.17;100.00;-15917.19;5033165;28;50952;-46
2022/10/30 01:41:24;;;;;;;;;19.25;18.00;;;;;-147.17;100.00;-15917.19;5032577;28;51211;-45
2022/10/30 01:43:57;;;;;;;;;21.67;20.67;;;;;-147.17;100.00;-15917.19;5032748;28;52226;-47
2022/10/30 01:46:40;;;;;;;;;21.75;18.75;;;;;-147.17;100.00;-15917.19;5032059;28;51193;-46
2022/10/30 01:49:40;;;;;;;;;20.25;20.00;;;;;-147.17;100.00;-15917.19;5032287;28;51158;-48
2022/10/30 01:52:13;;;;;;;;;22.50;20.75;;;;;-147.17;100.00;-15917.19;5032717;28;51360;-46
2022/10/30 01:54:45;;;;;;;;;20.00;19.00;;;;;-147.17;100.00;-15917.19;5032410;28;52060;-46
2022/10/30 01:57:14;;;;;;;;;19.00;18.00;;;;;-147.17;100.00;-15917.19;5030906;28;51032;-46
2022/10/30 01:59:46;;;;;;;;;22.00;21.00;;;;;-147.17;100.00;-15917.19;5032559;28;51063;-46
2022/10/30 02:02:13;;;;;;;;;19.50;19.00;;;;;-147.17;100.00;-15917.19;5032479;28;51271;-47
2022/10/30 02:04:38;;;;;;;;;20.00;19.00;;;;;-147.17;100.00;-15917.19;5032101;28;53450;-46
2022/10/30 02:07:04;;;;;;;;;19.50;19.50;;;;;-147.17;100.00;-15917.19;5031494;28;51027;-46
2022/10/30 02:09:30;;;;;;;;;19.75;18.75;;;;;-147.17;100.00;-15917.19;5032889;28;51059;-46
2022/10/30 02:11:56;;;;;;;;;18.00;17.67;;;;;-147.17;100.00;-15917.19;5013530;28;51349;-46
2022/10/30 02:14:32;;;;;;;;;19.00;17.33;;;;;-147.17;100.00;-15917.19;5031411;28;51964;-46
2022/10/30 02:17:01;;;;;;;;;18.33;18.00;;;;;-147.17;100.00;-15917.19;5031357;28;51130;-45
2022/10/30 02:19:27;;;;;;;;;19.00;18.00;;;;;-147.17;100.00;-15917.19;5032351;28;51094;-46
2022/10/30 02:21:52;;;;;;;;;17.50;16.75;;;;;-147.17;100.00;-15917.19;5032340;28;51177;-45
2022/10/30 02:24:18;;;;;;;;;19.75;19.50;;;;;-147.17;100.00;-15917.19;5032393;28;51515;-46
2022/10/30 02:26:43;;;;;;;;;19.00;17.67;;;;;-147.17;100.00;-15917.19;5031197;28;50972;-46
2022/10/30 02:29:08;;;;;;;;;19.33;18.33;;;;;-147.17;100.00;-15917.19;5032019;28;51069;-48
2022/10/30 02:31:35;;;;;;;;;18.67;18.00;;;;;-147.17;100.00;-15917.19;5032336;28;51064;-46
2022/10/30 02:34:01;;;;;;;;;15.67;15.67;;;;;-147.17;100.00;-15917.19;5032423;28;51935;-46
2022/10/30 02:36:26;;;;;;;;;18.00;16.67;;;;;-147.17;100.00;-15917.19;5030669;28;51141;-46
2022/10/30 02:38:51;;;;;;;;;18.00;17.00;;;;;-147.17;100.00;-15917.19;5020077;28;51145;-46
2022/10/30 02:41:16;;;;;;;;;15.33;14.67;;;;;-147.17;100.00;-15917.19;5032529;28;51089;-46
2022/10/30 02:43:42;;;;;;;;;15.00;14.67;;;;;-147.17;100.00;-15917.19;5032059;28;51028;-46
2022/10/30 02:46:07;;;;;;;;;17.33;16.00;;;;;-147.17;100.00;-15917.19;5030618;28;52419;-46
2022/10/30 02:48:32;;;;;;;;;20.50;18.25;;;;;-147.17;100.00;-15917.19;5034216;28;51252;-47
2022/10/30 02:51:00;;;;;;;;;17.00;16.00;;;;;-147.17;100.00;-15917.19;5035101;28;51150;-46
2022/10/30 02:53:25;;;;;;;;;17.00;16.33;;;;;-147.17;100.00;-15917.19;5034772;28;52008;-47
2022/10/30 02:55:50;;;;;;;;;16.33;15.33;;;;;-147.17;100.00;-15917.19;5034554;28;51229;-47
2022/10/30 02:58:16;;;;;;;;;16.67;16.00;;;;;-147.17;100.00;-15917.19;5035771;28;50932;-45
2022/10/30 03:00:41;;;;;;;;;20.50;18.00;;;;;-147.17;100.00;-15917.19;5030168;28;51178;-47
2022/10/30 03:03:06;;;;;;;;;17.00;16.33;;;;;-147.17;100.00;-15917.19;5034196;28;52042;-47
2022/10/30 03:05:32;;;;;;;;;17.33;17.33;;;;;-147.17;100.00;-15917.19;5034078;28;50934;-47
2022/10/30 03:07:57;;;;;;;;;16.25;16.25;;;;;-147.17;100.00;-15917.19;5017760;28;51146;-47
2022/10/30 03:10:22;;;;;;;;;17.00;15.75;;;;;-147.17;100.00;-15917.19;5035911;28;51097;-45
2022/10/30 03:12:47;;;;;;;;;19.00;18.00;;;;;-147.17;100.00;-15917.19;5034858;28;52540;-44
2022/10/30 03:15:13;;;;;;;;;19.67;17.00;;;;;-147.17;100.00;-15917.19;5034485;28;50955;-45
2022/10/30 03:17:38;;;;;;;;;14.00;13.33;;;;;-147.17;100.00;-15917.19;5035058;28;51580;-47
2022/10/30 03:20:04;;;;;;;;;16.00;15.00;;;;;-147.17;100.00;-15917.19;5033929;28;51278;-46
2022/10/30 03:22:29;;;;;;;;;16.75;15.00;;;;;-147.17;100.00;-15917.19;5034861;28;51881;-45
2022/10/30 03:24:54;;;;;;;;;17.33;16.33;;;;;-147.17;100.00;-15917.19;5034506;28;53604;-46
2022/10/30 03:27:20;;;;;;;;;15.00;14.00;;;;;-147.17;100.00;-15917.19;5033770;28;51114;-45
2022/10/30 03:29:45;;;;;;;;;14.00;14.00;;;;;-147.17;100.00;-15917.19;5035428;28;51282;-45
2022/10/30 03:32:11;;;;;;;;;17.67;16.67;;;;;-147.17;100.00;-15917.19;5034422;28;64653;-45
2022/10/30 03:34:37;;;;;;;;;18.75;16.50;;;;;-147.17;100.00;-15917.19;5034733;28;51082;-45
2022/10/30 03:37:02;;;;;;;;;16.67;16.67;;;;;-147.17;100.00;-15917.19;5032024;28;52107;-46
2022/10/30 03:39:28;;;;;;;;;16.67;16.00;;;;;-147.17;100.00;-15917.19;5034892;28;51069;-46
2022/10/30 03:41:53;;;;;;;;;19.67;17.00;;;;;-147.17;100.00;-15917.19;5034242;28;51056;-45
2022/10/30 03:44:18;;;;;;;;;18.75;17.75;;;;;-147.17;100.00;-15917.19;5034711;28;51059;-47
2022/10/30 03:46:44;;;;;;;;;18.00;16.33;;;;;-147.17;100.00;-15917.19;5033465;28;51601;-46
2022/10/30 03:49:09;;;;;;;;;19.25;18.00;;;;;-147.17;100.00;-15917.19;5017162;28;51240;-46
2022/10/30 03:51:34;;;;;;;;;18.50;18.50;;;;;-147.17;100.00;-15917.19;5034085;28;50952;-44
2022/10/30 03:54:00;;;;;;;;;15.00;14.00;;;;;-147.17;100.00;-15917.19;5033985;28;50998;-45
2022/10/30 03:56:25;;;;;;;;;14.00;13.33;;;;;-147.17;100.00;-15917.19;5032793;28;51190;-46
2022/10/30 03:58:50;;;;;;;;;18.00;15.33;;;;;-147.17;100.00;-15917.19;5034086;28;51128;-45
2022/10/30 04:01:15;;;;;;;;;18.67;17.33;;;;;-147.17;100.00;-15917.19;5033866;28;52748;-47
2022/10/30 04:03:41;;;;;;;;;16.00;15.00;;;;;-147.17;100.00;-15917.19;5034809;28;51009;-45
2022/10/30 04:06:06;;;;;;;;;16.75;15.00;;;;;-147.17;100.00;-15917.19;5033360;28;51050;-50
2022/10/30 04:08:32;;;;;;;;;16.33;16.00;;;;;-147.17;100.00;-15917.19;5000636;28;51325;-47
2022/10/30 04:10:58;;;;;;;;;14.67;14.00;;;;;-147.17;100.00;-15917.19;5033294;28;53073;-46
2022/10/30 04:13:23;;;;;;;;;18.00;16.00;;;;;-147.17;100.00;-15917.19;5034244;28;51062;-46
2022/10/30 04:15:48;;;;;;;;;14.75;14.25;;;;;-147.17;100.00;-15917.19;5033566;28;51504;-46
2022/10/30 04:18:16;;;;;;;;;17.67;16.67;;;;;-147.17;100.00;-15917.19;5034625;28;51217;-46
2022/10/30 04:20:42;;;;;;;;;17.67;16.00;;;;;-147.17;100.00;-15917.19;5033935;28;51823;-47
2022/10/30 04:23:12;;;;;;;;;21.00;20.33;;;;;-147.17;100.00;-15917.19;5034441;28;51024;-47
2022/10/30 04:25:38;;;;;;;;;20.00;18.00;;;;;-147.17;100.00;-15917.19;5014617;28;51022;-46
2022/10/30 04:28:03;;;;;;;;;19.00;17.75;;;;;-147.17;100.00;-15917.19;5033736;28;51330;-46
2022/10/30 04:30:34;;;;;;;;;15.25;14.00;;;;;-147.17;100.00;-15917.19;5033911;28;51977;-46
2022/10/30 04:32:59;;;;;;;;;13.50;13.00;;;;;-147.17;100.00;-15917.19;5034035;28;51127;-53
2022/10/30 04:35:27;;;;;;;;;17.75;16.00;;;;;-147.17;100.00;-15917.19;5033176;28;51004;-46
2022/10/30 04:38:00;;;;;;;;;15.50;15.00;;;;;-147.17;100.00;-15917.19;5028363;28;51190;-47
2022/10/30 04:40:28;;;;;;;;;21.00;19.00;;;;;-147.17;100.00;-15917.19;5021188;28;52855;-46
2022/10/30 04:42:54;;;;;;;;;15.00;13.75;;;;;-147.17;100.00;-15917.19;5033199;28;51173;-46
2022/10/30 04:45:20;;;;;;;;;17.67;16.33;;;;;-147.17;100.00;-15917.19;5033344;28;52530;-45
2022/10/30 04:47:45;;;;;;;;;15.33;14.33;;;;;-147.17;100.00;-15917.19;5033956;28;51108;-47
2022/10/30 04:50:11;;;;;;;;;15.00;14.00;;;;;-147.17;100.00;-15917.19;5033338;28;51942;-48
2022/10/30 04:52:37;;;;;;;;;16.00;15.00;;;;;-147.17;100.00;-15917.19;5033617;28;51557;-46
2022/10/30 04:55:03;;;;;;;;;19.75;17.75;;;;;-147.17;100.00;-15917.19;5033582;28;51020;-48
2022/10/30 04:57:30;;;;;;;;;16.33;15.67;;;;;-147.17;100.00;-15917.19;5032884;28;51401;-53
2022/10/30 04:59:55;;;;;;;;;16.50;15.25;;;;;-147.17;100.00;-15917.19;5022604;28;53125;-46
2022/10/30 05:02:20;;;;;;;;;17.33;16.00;;;;;-147.17;100.00;-15917.19;5033465;28;51201;-46
2022/10/30 05:04:46;;;;;;;;;17.33;16.00;;;;;-147.17;100.00;-15917.19;5033304;28;50950;-46
2022/10/30 05:07:15;;;;;;;;;15.00;14.00;;;;;-147.17;100.00;-15917.19;5032854;28;51404;-46
2022/10/30 05:09:40;;;;;;;;;17.00;16.67;;;;;-147.17;100.00;-15917.19;5033746;28;51911;-46
2022/10/30 05:12:06;;;;;;;;;17.50;16.25;;;;;-147.17;100.00;-15917.19;5015521;28;51040;-47
2022/10/30 05:14:32;;;;;;;;;18.00;16.75;;;;;-147.17;100.00;-15917.19;5014863;28;51246;-47
2022/10/30 05:16:58;;;;;;;;;13.25;13.00;;;;;-147.17;100.00;-15917.19;5032932;28;51215;-46
2022/10/30 05:19:24;;;;;;;;;15.00;14.00;;;;;-147.17;100.00;-15917.19;5032597;28;51753;-46
2022/10/30 05:21:49;;;;;;;;;15.67;15.67;;;;;-147.17;100.00;-15917.19;5033177;28;50956;-46
2022/10/30 05:24:14;;;;;;;;;13.50;12.75;;;;;-147.17;100.00;-15917.19;5021167;28;51739;-45
2022/10/30 05:26:40;;;;;;;;;13.00;13.00;;;;;-147.17;100.00;-15917.19;5032649;28;50870;-47
2022/10/30 05:29:05;;;;;;;;;15.00;13.00;;;;;-147.17;100.00;-15917.19;5015391;28;53177;-46
2022/10/30 05:31:30;;;;;;;;;14.67;14.00;;;;;-147.17;100.00;-15917.19;5032703;28;50928;-47
2022/10/30 05:33:56;;;;;;;;;15.33;15.33;;;;;-147.17;100.00;-15917.19;5033403;28;51122;-47
2022/10/30 05:36:21;;;;;;;;;18.50;15.75;;;;;-147.17;100.00;-15917.19;5031891;28;51204;-46
2022/10/30 05:38:46;;;;;;;;;18.25;15.75;;;;;-147.17;100.00;-15917.19;5032705;28;52975;-47
2022/10/30 05:41:12;;;;;;;;;9.00;8.67;;;;;-147.17;100.00;-15917.19;5032965;28;50986;-46
2022/10/30 05:43:37;;;;;;;;;16.67;16.67;;;;;-147.17;100.00;-15917.19;5032946;28;51052;-47
2022/10/30 05:46:02;;;;;;;;;17.67;16.00;;;;;-147.17;100.00;-15917.19;5031871;28;51093;-46
2022/10/30 05:48:28;;;;;;;;;16.67;15.67;;;;;-147.17;100.00;-15917.19;5032761;28;51741;-46
2022/10/30 05:50:55;;;;;;;;;16.67;16.00;;;;;-147.17;100.00;-15917.19;5014576;28;51154;-46
2022/10/30 05:53:20;;;;;;;;;16.33;14.00;;;;;-147.17;100.00;-15917.19;5032729;28;51167;-46
2022/10/30 05:55:46;;;;;;;;;14.25;14.00;;;;;-147.17;100.00;-15917.19;5032080;28;51179;-45
2022/10/30 05:58:11;;;;;;;;;14.50;13.75;;;;;-147.17;100.00;-15917.19;5019367;28;52158;-46
2022/10/30 06:00:38;;;;;;;;;17.50;15.75;;;;;-147.17;100.00;-15917.19;5029791;28;51138;-46
2022/10/30 06:03:06;;;;;;;;;14.25;14.00;;;;;-147.17;100.00;-15917.19;5028599;28;51076;-45
2022/10/30 06:05:34;;;;;;;;;15.75;15.50;;;;;-147.17;100.00;-15917.19;5032520;28;51175;-45
2022/10/30 06:08:00;;;;;;;;;19.67;15.33;;;;;-147.17;100.00;-15917.19;5031627;28;51986;-45
2022/10/30 06:10:26;;;;;;;;;16.00;13.00;;;;;-147.17;100.00;-15917.19;5032795;28;50905;-45
2022/10/30 06:12:55;;;;;;;;;15.00;14.50;;;;;-147.17;100.00;-15917.19;5032198;28;50978;-45
2022/10/30 06:15:22;;;;;;;;;13.00;12.00;;;;;-147.17;100.00;-15917.19;5032745;28;51406;-45
2022/10/30 06:17:47;;;;;;;;;14.75;14.00;;;;;-147.17;100.00;-15917.19;5031618;28;51106;-47
2022/10/30 06:20:13;;;;;;;;;17.00;14.75;;;;;-147.17;100.00;-15917.19;5031640;28;51095;-46
2022/10/30 06:22:39;;;;;;;;;10.00;10.00;;;;;-147.17;100.00;-15917.19;5020540;28;51160;-44
2022/10/30 06:25:05;;;;;;;;;15.50;15.50;;;;;-147.17;100.00;-15917.19;5032462;28;51369;-47
2022/10/30 06:27:34;;;;;;;;;14.67;12.33;;;;;-147.17;100.00;-15917.19;5031809;28;51093;-47
2022/10/30 06:29:59;;;;;;;;;18.25;16.00;;;;;-147.17;100.00;-15917.19;5032540;28;51003;-45
2022/10/30 06:32:24;;;;;;;;;17.00;16.00;;;;;-147.17;100.00;-15917.19;5032376;28;51081;-47
2022/10/30 06:34:49;;;;;;;;;17.75;16.25;;;;;-147.17;100.00;-15917.19;5031965;28;51426;-47
2022/10/30 06:37:15;;;;;;;;;17.00;15.75;;;;;-147.17;100.00;-15917.19;5030732;28;51737;-47
2022/10/30 06:39:40;;;;;;;;;17.75;17.00;;;;;-147.17;100.00;-15917.19;5032238;28;50973;-46
2022/10/30 06:42:05;;;;;;;;;14.00;14.00;;;;;-147.17;100.00;-15917.19;5032495;28;50985;-46
2022/10/30 06:44:31;;;;;;;;;14.50;14.50;;;;;-147.17;100.00;-15917.19;5031907;28;51344;-46
2022/10/30 06:46:56;;;;;;;;;19.50;18.00;;;;;-147.17;100.00;-15917.19;4996746;28;57692;-46
2022/10/30 06:49:21;;;;;;;;;15.50;14.75;;;;;-147.17;100.00;-15917.19;5031840;28;51002;-46
2022/10/30 06:51:49;;;;;;;;;14.00;14.00;;;;;-147.17;100.00;-15917.19;5031778;28;54235;-45
2022/10/30 06:54:14;;;;;;;;;15.00;15.00;;;;;-147.17;100.00;-15917.19;5031396;28;50934;-44
2022/10/30 06:56:40;;;;;;;;;19.25;17.25;;;;;-147.17;100.00;-15917.19;5030636;28;51910;-45
2022/10/30 06:59:05;;;;;;;;;15.75;15.00;;;;;-147.17;100.00;-15917.19;5032229;28;51143;-46
2022/10/30 07:01:31;;;;;;;;;15.75;15.75;;;;;-147.17;100.00;-15917.19;5032431;28;51075;-46
2022/10/30 07:03:56;;;;;;;;;16.75;16.50;;;;;-147.17;100.00;-15917.19;5031718;28;51373;-47
2022/10/30 07:06:21;;;;;;;;;17.25;15.75;;;;;-147.17;100.00;-15917.19;5030100;28;65847;-47
2022/10/30 07:08:47;;;;;;;;;19.25;17.50;;;;;-147.17;100.00;-15917.19;5013958;28;51047;-47
2022/10/30 07:11:12;;;;;;;;;17.75;15.50;;;;;-147.17;100.00;-15917.19;5031462;28;50972;-44
2022/10/30 07:13:37;;;;;;;;;16.75;15.50;;;;;-147.17;100.00;-15917.19;5031906;28;51241;-45
2022/10/30 07:16:03;;;;;;;;;13.50;12.25;;;;;-147.17;100.00;-15917.19;5030626;28;61729;-47
2022/10/30 07:18:28;;;;;;;;;14.25;14.25;;;;;-147.17;100.00;-15917.19;5031894;28;51058;-45
2022/10/30 07:20:57;;;;;;;;;16.50;16.50;;;;;-147.17;100.00;-15917.19;5022359;28;51101;-45
2022/10/30 07:23:23;;;;;;;;;17.00;16.75;;;;;-147.17;100.00;-15917.19;5031831;28;51191;-46
2022/10/30 07:25:48;;;;;;;;;15.25;13.75;;;;;-147.17;100.00;-15917.19;5029498;28;51982;-47
2022/10/30 07:28:13;;;;;;;;;15.75;14.25;;;;;-147.17;100.00;-15917.19;5030903;28;51008;-47
2022/10/30 07:30:39;;;;;;;;;17.25;16.25;;;;;-147.17;100.00;-15917.19;5031819;28;50988;-47
2022/10/30 07:33:06;;;;;;;;;12.75;12.75;;;;;-147.17;100.00;-15917.19;5013899;28;51285;-46
2022/10/30 07:35:34;;;;;;;;;19.00;16.00;;;;;-147.17;100.00;-15917.19;5032994;28;51809;-47
2022/10/30 07:38:10;;;;;;;;;15.50;15.25;;;;;-147.17;100.00;-15917.19;5027815;28;51154;-46
2022/10/30 07:40:35;;;;;;;;;17.25;16.25;;;;;-147.17;100.00;-15917.19;5034574;28;50866;-46
2022/10/30 07:43:03;;;;;;;;;17.00;14.00;;;;;-147.17;100.00;-15917.19;5034194;28;50849;-46
2022/10/30 07:45:28;;;;;;;;;17.00;17.00;;;;;-147.17;100.00;-15917.19;5033911;28;51871;-46
2022/10/30 07:47:54;;;;;;;;;16.67;16.00;;;;;-147.17;100.00;-15917.19;5034515;28;51325;-46
2022/10/30 07:50:20;;;;;;;;;14.33;14.33;;;;;-147.17;100.00;-15917.19;5033479;28;51593;-47
2022/10/30 07:52:46;;;;;;;;;16.00;15.33;;;;;-147.17;100.00;-15917.19;5034494;28;51336;-45
2022/10/30 07:55:11;;;;;;;;;18.00;15.00;;;;;-147.17;100.00;-15917.19;5034099;28;52179;-46
2022/10/30 07:57:41;;;;;;;;;16.00;15.67;;;;;-147.17;100.00;-15917.19;5034410;28;51012;-46
2022/10/30 08:00:10;;;;;;;;;19.00;17.67;;;;;-147.17;100.00;-15917.19;5033803;28;50902;-46
2022/10/30 08:02:36;;;;;;;;;16.67;16.00;;;;;-147.17;100.00;-15917.19;5015987;28;51210;-46
2022/10/30 08:05:02;;;;;;;;;15.33;14.67;;;;;-147.17;100.00;-15917.19;5034153;28;52005;-46
2022/10/30 08:07:35;;;;;;;;;17.33;16.00;;;;;-147.17;100.00;-15917.19;5016337;28;51131;-47
2022/10/30 08:10:01;;;;;;;;;17.33;16.33;;;;;-147.17;100.00;-15917.19;5034557;28;51222;-47
2022/10/30 08:12:26;;;;;;;;;16.00;16.00;;;;;-147.17;100.00;-15917.19;5032563;28;51237;-46
2022/10/30 08:14:52;;;;;;;;;18.33;17.67;;;;;-147.17;100.00;-15917.19;5033859;28;51737;-47
2022/10/30 08:17:17;;;;;;;;;17.67;17.67;;;;;-147.17;100.00;-15917.19;5033141;28;51111;-46
2022/10/30 08:19:43;;;;;;;;;15.33;15.00;;;;;-147.17;100.00;-15917.19;5026749;28;50996;-47
2022/10/30 08:22:09;;;;;;;;;17.00;16.00;;;;;-147.17;100.00;-15917.19;5033426;28;51107;-47
2022/10/30 08:24:35;;;;;;;;;14.00;14.00;;;;;-147.17;100.00;-15917.19;5034037;28;50925;-46
2022/10/30 08:27:00;;;;;;;;;16.00;15.00;;;;;-147.17;100.00;-15917.19;5033339;28;50848;-47
2022/10/30 08:29:26;;;;;;;;;15.67;15.33;;;;;-147.17;100.00;-15917.19;5034217;28;51107;-46
2022/10/30 08:31:51;;;;;;;;;18.33;18.33;;;;;-147.17;100.00;-15917.19;5032833;28;50843;-46
2022/10/30 08:34:16;;;;;;;;;10.00;9.33;;;;;-147.17;100.00;-15917.19;5032785;28;51860;-46
2022/10/30 08:36:42;;;;;;;;;13.33;13.00;;;;;-147.17;100.00;-15917.19;5033411;28;50971;-45
2022/10/30 08:39:08;;;;;;;;;17.67;17.00;;;;;-147.17;100.00;-15917.19;5033868;28;51322;-46
2022/10/30 08:41:33;;;;;;;;;15.33;14.33;;;;;-147.17;100.00;-15917.19;5032806;28;51345;-45
2022/10/30 08:43:58;;;;;;;;;14.67;14.67;;;;;-147.17;100.00;-15917.19;5033474;28;52246;-45
2022/10/30 08:46:24;;;;;;;;;14.00;14.00;;;;;-147.17;100.00;-15917.19;5033409;28;50973;-46
2022/10/30 08:48:49;;;;;;;;;16.33;15.33;;;;;-147.17;100.00;-15917.19;5032806;28;51443;-46
2022/10/30 08:51:14;;;;;;;;;16.00;16.00;;;;;-147.17;100.00;-15917.19;5032341;28;51125;-46
2022/10/30 08:53:40;;;;;;;;;14.67;14.67;;;;;-147.17;100.00;-15917.19;5033182;28;51678;-46
2022/10/30 08:56:05;;;;;;;;;16.00;15.67;;;;;-147.17;100.00;-15917.19;5033366;28;50984;-46
2022/10/30 08:58:30;;;;;;;;;14.33;14.33;;;;;-147.17;100.00;-15917.19;5033780;28;50999;-46
2022/10/30 09:00:56;;;;;;;;;14.00;13.33;;;;;-147.17;100.00;-15917.19;5029385;28;51230;-47
2022/10/30 09:03:21;;;;;;;;;19.00;17.33;;;;;-147.17;100.00;-15917.19;5029925;28;52807;-45
2022/10/30 09:05:47;;;;;;;;;13.00;13.00;;;;;-147.17;100.00;-15917.19;5032732;28;51196;-46
2022/10/30 09:08:12;;;;;;;;;16.67;15.00;;;;;-147.17;100.00;-15917.19;5032463;28;51019;-46
2022/10/30 09:10:38;;;;;;;;;13.33;13.33;;;;;-147.17;100.00;-15917.19;5032456;28;51122;-47
2022/10/30 09:13:03;;;;;;;;;13.00;12.33;;;;;-147.17;100.00;-15917.19;5032820;28;51809;-45
2022/10/30 09:15:29;;;;;;;;;17.00;15.00;;;;;-147.17;100.00;-15917.19;5034527;28;51095;-45
2022/10/30 09:17:59;;;;;;;;;17.33;16.33;;;;;-147.17;100.00;-15917.19;5033105;28;50969;-46
2022/10/30 09:20:26;;;;;;;;;14.33;13.67;;;;;-147.17;100.00;-15917.19;5031656;28;51358;-46
2022/10/30 09:22:51;;;;;;;;;17.67;16.33;;;;;-147.17;100.00;-15917.19;5032209;28;51123;-45
2022/10/30 09:25:16;;;;;;;;;18.67;13.67;;;;;-147.17;100.00;-15917.19;5032421;28;51138;-48
2022/10/30 09:27:42;;;;;;;;;17.67;16.33;;;;;-147.17;100.00;-15917.19;5033209;28;51068;-45
2022/10/30 09:30:08;;;;;;;;;17.33;16.33;;;;;-147.17;100.00;-15917.19;5031659;28;51213;-46
2022/10/30 09:32:33;;;;;;;;;17.33;15.00;;;;;-147.17;100.00;-15917.19;5014990;28;52701;-46
2022/10/30 09:34:58;;;;;;;;;11.00;10.67;;;;;-147.17;100.00;-15917.19;5032123;28;51026;-47
2022/10/30 09:37:25;;;;;;;;;13.33;13.33;;;;;-147.17;100.00;-15917.19;5032383;28;51013;-48
2022/10/30 09:39:50;;;;;;;;;15.00;13.67;;;;;-147.17;100.00;-15917.19;5030976;28;51355;-46
2022/10/30 09:42:37;;;;;;;;;14.33;12.33;;;;;-147.17;100.00;-15917.19;5032206;28;52141;-48
2022/10/30 09:45:17;;;;;;;;;9.67;9.33;;;;;-147.17;100.00;-15917.19;5031289;28;50868;-47
2022/10/30 09:47:50;;;;;;;;;12.33;12.33;;;;;-147.17;100.00;-15917.19;5032141;28;51228;-47
2022/10/30 09:50:38;;;;;;;;;16.00;15.67;;;;;-147.17;100.00;-15917.19;5031490;28;52106;-46
2022/10/30 09:53:29;;;;;;;;;13.67;13.33;;;;;-147.17;100.00;-15917.19;5031831;28;51102;-48
2022/10/30 09:56:00;;;;;;;;;12.67;12.67;;;;;-147.17;100.00;-15917.19;5031652;28;51082;-47
2022/10/30 09:58:49;;;;;;;;;13.67;12.00;;;;;-147.17;100.00;-15917.19;5030576;28;50989;-46
2022/10/30 10:01:46;;;;;;;;;13.33;12.33;;;;;-147.17;100.00;-15917.19;5029786;28;50900;-47
2022/10/30 10:04:38;;;;;;;;;11.00;11.00;;;;;-147.17;100.00;-15917.19;5029935;28;51088;-45
2022/10/30 10:07:34;;;;;;;;;13.33;12.33;;;;;-147.17;100.00;-15917.19;5032155;28;51033;-46
2022/10/30 10:10:10;;;;;;;;;11.33;11.00;;;;;-147.17;100.00;-15917.19;5007369;28;51248;-47
2022/10/30 10:12:42;;;;;;;;;11.00;10.67;;;;;-147.17;100.00;-15917.19;5029518;28;51233;-48
2022/10/30 10:15:15;;;;;;;;;12.67;11.67;;;;;-147.17;100.00;-15917.19;5021710;28;51928;-48
2022/10/30 10:17:45;;;;;;;;;11.00;11.00;;;;;-147.17;100.00;-15917.19;5030930;28;51411;-46
2022/10/30 10:20:40;;;;;;;;;12.00;11.00;;;;;-147.17;100.00;-15917.19;5030034;28;51234;-49
2022/10/30 10:23:40;;;;;;;;;10.33;10.33;;;;;-147.17;100.00;-15917.19;5015152;28;51136;-46
2022/10/30 10:26:26;;;;;;;;;8.67;8.67;;;;;-147.17;100.00;-15917.19;5008645;28;53046;-47
2022/10/30 10:28:54;;;;;;;;;11.67;10.67;;;;;-147.17;100.00;-15917.19;5018353;28;51064;-48
2022/10/30 10:31:37;;;;;;;;;8.00;7.67;;;;;-147.17;100.00;-15917.19;5029537;28;51291;-45
2022/10/30 10:34:34;;;;;;;;;6.33;5.67;;;;;-147.17;100.00;-15917.19;5028104;28;51328;-47
2022/10/30 10:37:22;;;;;;;;;10.00;8.33;;;;;-147.17;100.00;-15917.19;5025332;28;51871;-47
2022/10/30 10:40:34;;;;;;;;;10.67;8.67;;;;;-147.17;100.00;-15917.19;5029850;28;51064;-47
2022/10/30 10:43:23;;;;;;;;;9.33;8.33;;;;;-147.17;100.00;-15917.19;5012949;28;51004;-48
2022/10/30 10:46:16;;;;;;;;;9.00;8.00;;;;;-147.17;100.00;-15917.19;5028602;28;51290;-51
2022/10/30 10:49:00;;;;;;;;;13.00;12.00;;;;;-147.17;100.00;-15917.19;5025366;28;51692;-47
2022/10/30 10:51:38;;;;;;;;;15.00;13.00;;;;;-147.17;100.00;-15917.19;5029151;28;51271;-46
2022/10/30 10:54:18;;;;;;;;;10.67;10.00;;;;;-147.17;100.00;-15917.19;5030937;28;51184;-47